Time;durP1;ratioP1;P1;durP2;ratioP2;P2;SDS_P1;SDS_P2;PMS_P1;PMS_P2;Temp;Humidity;BMP_temperature;BMP_pressure;BME280_temperature;BME280_humidity;BME280_pressure;Samples;Min_cycle;Max_cycle;Signal;HPM_P1;HPM_P2
2022/09/29 00:09:52;;;;;;;1.17;0.60;;;8.90;99.90;;;;;;20982835;28;20039;-41
2022/09/29 00:19:53;;;;;;;2.33;1.05;;;8.80;99.90;;;;;;20979460;28;20051;-40
2022/09/29 00:29:54;;;;;;;1.95;0.90;;;8.70;99.90;;;;;;20979888;28;20078;-40
2022/09/29 00:39:55;;;;;;;6.18;1.60;;;8.60;99.90;;;;;;20980356;28;20040;-40
2022/09/29 00:50:15;;;;;;;2.35;1.15;;;8.60;99.90;;;;;;20992468;28;20036;-40
2022/09/29 01:00:16;;;;;;;2.85;0.80;;;8.50;99.90;;;;;;20981483;28;20028;-40
2022/09/29 01:10:18;;;;;;;3.40;1.23;;;8.40;99.90;;;;;;20984757;28;20036;-40
2022/09/29 01:20:21;;;;;;;3.78;1.60;;;8.30;99.90;;;;;;20980423;28;20499;-40
2022/09/29 01:30:46;;;;;;;4.03;2.10;;;8.40;99.90;;;;;;20981128;28;20044;-40
2022/09/29 01:41:07;;;;;;;3.50;1.75;;;8.30;99.90;;;;;;20975107;28;20945;-40
2022/09/29 01:51:12;;;;;;;3.30;1.80;;;8.20;99.90;;;;;;20972187;28;20076;-40
2022/09/29 02:01:15;;;;;;;4.82;2.03;;;8.20;99.90;;;;;;20979342;28;20045;-40
2022/09/29 02:11:16;;;;;;;3.63;1.85;;;8.20;99.90;;;;;;20977465;28;20475;-40
2022/09/29 02:21:18;;;;;;;8.48;2.75;;;8.30;99.90;;;;;;20973005;28;20089;-40
2022/09/29 02:31:19;;;;;;;3.83;2.25;;;8.10;99.90;;;;;;20972332;28;20595;-40
2022/09/29 02:41:32;;;;;;;3.40;1.85;;;8.00;99.90;;;;;;20968879;28;20059;-40
2022/09/29 02:51:43;;;;;;;3.40;1.70;;;7.90;99.90;;;;;;20973866;28;20824;-40
2022/09/29 03:01:49;;;;;;;4.25;2.05;;;7.90;99.90;;;;;;20987438;28;20071;-40
2022/09/29 03:11:50;;;;;;;4.00;2.30;;;7.70;99.90;;;;;;20986881;28;20325;-40
2022/09/29 03:21:52;;;;;;;6.10;2.38;;;7.60;99.90;;;;;;20982032;28;20044;-40
2022/09/29 03:31:53;;;;;;;4.22;2.17;;;7.60;99.90;;;;;;20985918;28;20040;-40
2022/09/29 03:41:54;;;;;;;5.15;2.65;;;7.50;99.90;;;;;;20978888;28;20047;-40
2022/09/29 03:51:55;;;;;;;6.75;2.67;;;7.40;99.90;;;;;;20971328;28;20075;-40
2022/09/29 04:01:56;;;;;;;4.25;2.60;;;7.30;99.90;;;;;;20963153;28;20043;-40
2022/09/29 04:11:57;;;;;;;4.70;2.42;;;7.20;99.90;;;;;;20966429;28;20138;-40
2022/09/29 04:21:58;;;;;;;4.32;2.50;;;7.20;99.90;;;;;;20949804;28;20044;-40
2022/09/29 04:31:59;;;;;;;4.20;2.35;;;7.10;99.90;;;;;;20971101;28;20507;-40
2022/09/29 04:42:00;;;;;;;5.70;2.13;;;7.10;99.90;;;;;;20976382;28;20400;-40
2022/09/29 04:52:01;;;;;;;6.10;2.70;;;7.00;99.90;;;;;;20980751;28;20396;-40
2022/09/29 05:02:02;;;;;;;3.72;1.90;;;6.90;99.90;;;;;;20980338;28;20036;-40
2022/09/29 05:12:03;;;;;;;5.72;2.80;;;6.80;99.90;;;;;;20978520;28;20036;-40
2022/09/29 05:22:05;;;;;;;8.68;2.47;;;6.80;99.90;;;;;;20957366;28;20047;-40
2022/09/29 05:32:06;;;;;;;5.35;2.80;;;6.80;99.90;;;;;;20970215;28;20032;-40
2022/09/29 05:42:10;;;;;;;5.05;2.75;;;6.70;99.90;;;;;;20971636;28;20048;-40
2022/09/29 05:52:11;;;;;;;6.90;3.03;;;6.70;99.90;;;;;;20970067;28;20114;-40
2022/09/29 06:02:12;;;;;;;4.93;2.13;;;6.60;99.90;;;;;;20967085;28;20032;-40
2022/09/29 06:12:13;;;;;;;5.93;3.25;;;6.60;99.90;;;;;;20959573;28;20032;-40
2022/09/29 06:22:14;;;;;;;14.15;8.15;;;6.60;99.90;;;;;;20953160;28;20517;-40
2022/09/29 06:32:16;;;;;;;8.25;3.75;;;6.80;99.90;;;;;;20946003;28;20040;-40
2022/09/29 06:42:17;;;;;;;6.15;4.15;;;7.00;99.90;;;;;;20941870;28;20131;-40
2022/09/29 06:52:18;;;;;;;6.57;3.10;;;7.20;99.90;;;;;;20953165;28;20517;-40
2022/09/29 07:02:19;;;;;;;5.43;3.05;;;7.30;99.90;;;;;;20949121;28;20127;-40
2022/09/29 07:12:20;;;;;;;19.95;4.22;;;7.50;99.90;;;;;;20952117;28;20164;-40
2022/09/29 07:22:22;;;;;;;8.50;5.30;;;7.70;99.90;;;;;;20957310;28;20040;-40
2022/09/29 07:32:23;;;;;;;6.38;3.60;;;8.10;99.90;;;;;;20947429;28;20528;-40
2022/09/29 07:42:24;;;;;;;6.88;5.25;;;8.40;99.90;;;;;;20961621;28;20071;-40
2022/09/29 07:52:25;;;;;;;17.65;5.15;;;8.70;99.90;;;;;;20964047;28;20071;-40
2022/09/29 08:02:26;;;;;;;7.07;4.30;;;9.00;99.90;;;;;;20960904;28;20039;-40
2022/09/29 08:12:27;;;;;;;8.45;4.57;;;9.30;99.90;;;;;;20952703;28;20032;-40
2022/09/29 08:22:28;;;;;;;10.75;5.75;;;9.60;99.90;;;;;;20956408;28;20078;-40
2022/09/29 08:32:29;;;;;;;6.38;3.85;;;10.10;99.90;;;;;;20958345;28;20886;-40
2022/09/29 08:42:58;;;;;;;8.15;3.97;;;10.60;99.90;;;;;;20962195;28;20044;-41
2022/09/29 08:53:11;;;;;;;8.13;4.10;;;11.10;99.90;;;;;;20959539;28;20170;-40
2022/09/29 09:03:21;;;;;;;7.07;3.65;;;11.60;99.90;;;;;;20949354;28;20135;-40
2022/09/29 09:13:43;;;;;;;6.28;3.08;;;11.80;99.90;;;;;;20961846;28;20067;-39
2022/09/29 09:23:55;;;;;;;5.15;3.08;;;11.90;99.90;;;;;;20956224;28;20788;-39
2022/09/29 09:34:03;;;;;;;4.75;2.15;;;12.00;99.90;;;;;;20959819;28;20106;-39
2022/09/29 09:44:16;;;;;;;3.70;2.33;;;12.20;99.90;;;;;;20965788;28;20545;-39
2022/09/29 09:54:30;;;;;;;5.18;2.55;;;12.20;99.90;;;;;;20965146;28;20082;-39
2022/09/29 10:04:32;;;;;;;3.67;1.70;;;12.50;99.90;;;;;;20961734;28;20815;-39
2022/09/29 10:14:33;;;;;;;2.17;0.90;;;12.60;99.90;;;;;;20953238;28;20593;-39
2022/09/29 10:24:34;;;;;;;5.70;1.83;;;12.80;99.90;;;;;;20956808;28;20131;-39
2022/09/29 10:34:39;;;;;;;2.22;1.08;;;12.90;99.90;;;;;;20943860;28;20047;-39
2022/09/29 10:44:40;;;;;;;2.67;1.17;;;13.20;99.90;;;;;;20959590;28;20049;-40
2022/09/29 10:54:53;;;;;;;3.28;1.52;;;13.50;99.90;;;;;;20950490;28;20058;-39
2022/09/29 11:04:58;;;;;;;2.35;1.10;;;13.90;99.90;;;;;;20944861;28;20695;-40
2022/09/29 11:15:00;;;;;;;2.10;0.70;;;13.90;99.90;;;;;;20960839;28;20394;-39
2022/09/29 11:25:31;;;;;;;2.35;0.95;;;14.30;99.90;;;;;;20970752;28;20174;-39
2022/09/29 11:35:41;;;;;;;1.55;0.77;;;15.20;99.90;;;;;;20966101;28;20121;-40
2022/09/29 11:45:46;;;;;;;1.88;0.85;;;15.80;99.90;;;;;;20971902;28;20630;-38
2022/09/29 11:56:11;;;;;;;1.25;0.63;;;17.20;99.90;;;;;;20973213;28;20133;-38
2022/09/29 12:06:33;;;;;;;1.85;0.60;;;17.60;99.90;;;;;;20964297;28;20063;-38
2022/09/29 12:16:38;;;;;;;3.15;0.85;;;17.70;99.90;;;;;;20965661;28;21839;-38
2022/09/29 12:26:39;;;;;;;1.42;0.65;;;17.60;99.90;;;;;;20969131;28;20056;-38
2022/09/29 12:37:02;;;;;;;1.25;0.60;;;16.90;99.90;;;;;;20957722;28;20070;-38
2022/09/29 12:47:22;;;;;;;1.17;0.57;;;15.80;99.90;;;;;;20950892;28;20138;-38
2022/09/29 12:57:30;;;;;;;1.08;0.52;;;15.30;99.90;;;;;;20972920;28;20032;-38
2022/09/29 13:07:52;;;;;;;1.77;0.40;;;14.90;99.90;;;;;;20962554;28;22114;-37
2022/09/29 13:18:26;;;;;;;1.50;0.60;;;15.20;99.90;;;;;;20960191;28;20091;-38
2022/09/29 13:28:45;;;;;;;1.30;0.50;;;16.60;99.90;;;;;;20912516;28;20043;-38
2022/09/29 13:38:56;;;;;;;1.05;0.43;;;16.20;99.90;;;;;;20962668;28;20866;-38
2022/09/29 13:49:11;;;;;;;0.70;0.40;;;16.90;99.90;;;;;;20948452;28;20254;-38
2022/09/29 13:59:16;;;;;;;4.22;0.45;;;17.40;99.90;;;;;;20959001;28;20500;-38
2022/09/29 14:09:21;;;;;;;0.57;0.30;;;17.90;99.90;;;;;;20959498;28;20077;-38
2022/09/29 14:19:38;;;;;;;3.35;0.50;;;18.50;99.90;;;;;;20953093;28;20079;-38
2022/09/29 14:29:48;;;;;;;0.52;0.20;;;18.70;99.90;;;;;;20964433;28;20819;-38
2022/09/29 15:01:08;;;;;;;0.35;0.10;;;17.10;99.90;;;;;;20979976;28;22156;-38
2022/09/29 15:11:25;;;;;;;0.55;0.00;;;16.70;99.90;;;;;;20985153;28;20129;-39
2022/09/29 15:21:47;;;;;;;0.00;0.00;;;16.30;99.90;;;;;;20979468;28;20056;-39
2022/09/29 15:31:48;;;;;;;0.30;0.00;;;15.90;99.90;;;;;;20982158;28;20900;-39
2022/09/29 15:42:00;;;;;;;0.10;0.00;;;15.70;99.90;;;;;;20921740;28;20453;-39
2022/09/29 15:52:12;;;;;;;0.17;0.13;;;15.40;99.90;;;;;;20976878;28;20124;-39
2022/09/29 16:02:29;;;;;;;0.35;0.10;;;15.10;99.90;;;;;;20961404;28;20250;-38
2022/09/29 16:12:34;;;;;;;0.08;0.00;;;14.80;99.90;;;;;;20953418;28;20122;-38
2022/09/29 16:22:35;;;;;;;0.52;0.10;;;14.50;99.90;;;;;;20947850;28;20123;-38
2022/09/29 16:32:38;;;;;;;0.00;0.00;;;14.20;99.90;;;;;;20948397;28;20119;-38
2022/09/29 16:42:52;;;;;;;1.27;0.10;;;13.80;99.90;;;;;;20960919;28;20149;-38
2022/09/29 16:52:53;;;;;;;0.03;0.00;;;13.50;99.90;;;;;;20957627;28;20074;-38
2022/09/29 17:02:56;;;;;;;0.20;0.00;;;13.20;99.90;;;;;;20958846;28;20127;-38
2022/09/29 17:12:57;;;;;;;0.65;0.22;;;12.90;99.90;;;;;;20954040;28;20052;-38
2022/09/29 17:22:58;;;;;;;0.40;0.25;;;12.60;99.90;;;;;;20950840;28;20167;-40
2022/09/29 17:32:59;;;;;;;0.20;0.10;;;12.40;99.90;;;;;;20948698;28;20050;-40
2022/09/29 17:43:01;;;;;;;0.45;0.15;;;12.00;99.90;;;;;;20946960;28;20099;-40
2022/09/29 17:53:03;;;;;;;0.25;0.10;;;11.70;99.90;;;;;;20957690;28;20501;-40
2022/09/29 18:03:08;;;;;;;0.68;0.20;;;11.40;99.90;;;;;;20944860;28;20048;-40
2022/09/29 18:13:09;;;;;;;1.20;0.47;;;11.40;99.90;;;;;;20950516;28;20189;-40
2022/09/29 18:23:12;;;;;;;0.68;0.38;;;11.20;99.90;;;;;;20932413;28;20048;-40
2022/09/29 18:33:18;;;;;;;0.88;0.55;;;11.10;99.90;;;;;;20942379;28;20185;-40
2022/09/29 18:43:23;;;;;;;1.60;0.95;;;10.80;99.90;;;;;;20953360;28;20534;-40
2022/09/29 18:53:24;;;;;;;3.38;2.10;;;10.70;99.90;;;;;;20897639;28;20101;-40
2022/09/29 19:03:28;;;;;;;2.00;1.45;;;10.60;99.90;;;;;;20946388;28;20647;-40
2022/09/29 19:13:30;;;;;;;2.95;1.58;;;10.50;99.90;;;;;;20938225;28;20609;-40
2022/09/29 19:23:30;;;;;;;4.13;1.77;;;10.40;99.90;;;;;;20933825;28;20826;-39
2022/09/29 19:33:32;;;;;;;1.50;0.85;;;10.20;99.90;;;;;;20936287;28;20535;-39
2022/09/29 19:43:33;;;;;;;1.80;1.10;;;10.10;99.90;;;;;;20963148;28;20102;-39
2022/09/29 19:53:35;;;;;;;1.10;0.80;;;9.90;99.90;;;;;;20955915;28;20056;-39
2022/09/29 20:03:36;;;;;;;3.05;1.08;;;9.80;99.90;;;;;;20953953;28;20032;-39
2022/09/29 20:13:38;;;;;;;1.42;0.80;;;9.70;99.90;;;;;;20941654;28;20037;-39
2022/09/29 20:23:39;;;;;;;1.10;0.60;;;9.60;99.90;;;;;;20941509;28;20559;-39
2022/09/29 20:33:41;;;;;;;1.45;0.77;;;9.50;99.90;;;;;;20954251;28;20147;-39
2022/09/29 20:43:50;;;;;;;1.38;0.63;;;9.40;99.90;;;;;;20933695;28;20102;-40
2022/09/29 20:53:53;;;;;;;2.25;1.30;;;9.40;99.90;;;;;;20950252;28;20250;-39
2022/09/29 21:04:06;;;;;;;1.88;0.77;;;9.40;99.90;;;;;;20953980;28;20075;-39
2022/09/29 21:14:17;;;;;;;2.55;1.52;;;9.30;99.90;;;;;;20955070;28;20079;-39
2022/09/29 21:24:18;;;;;;;2.08;1.55;;;9.30;99.90;;;;;;20931949;28;20597;-40
2022/09/29 21:34:19;;;;;;;3.97;2.67;;;9.20;99.90;;;;;;20937689;28;20452;-39
2022/09/29 21:44:22;;;;;;;3.55;2.22;;;9.10;99.90;;;;;;20930608;28;20538;-40
2022/09/29 21:54:24;;;;;;;3.25;2.33;;;9.00;99.90;;;;;;20930700;28;20124;-39
2022/09/29 22:04:25;;;;;;;3.05;1.70;;;9.00;99.90;;;;;;20937922;28;20179;-40
2022/09/29 22:14:26;;;;;;;3.17;2.03;;;9.00;99.90;;;;;;20929817;28;20131;-39
2022/09/29 22:24:27;;;;;;;3.58;1.80;;;8.90;99.90;;;;;;20932624;28;20081;-39
2022/09/29 22:34:28;;;;;;;4.43;2.10;;;8.80;99.90;;;;;;20936051;28;20763;-40
2022/09/29 22:44:29;;;;;;;4.20;1.52;;;8.70;99.90;;;;;;20928380;28;20173;-39
2022/09/29 22:54:30;;;;;;;4.53;2.22;;;8.60;99.90;;;;;;20931073;28;20131;-39
2022/09/29 23:04:31;;;;;;;4.63;2.55;;;8.60;99.90;;;;;;20928471;28;20112;-40
2022/09/29 23:14:32;;;;;;;6.80;2.22;;;8.60;99.90;;;;;;20938572;28;20123;-40
2022/09/29 23:24:33;;;;;;;4.20;1.83;;;8.60;99.90;;;;;;20943210;28;20048;-39
2022/09/29 23:34:34;;;;;;;3.45;1.92;;;8.60;99.90;;;;;;20946140;28;20081;-40
2022/09/29 23:44:39;;;;;;;3.28;1.30;;;8.60;99.90;;;;;;20947506;28;20163;-40
2022/09/29 23:54:40;;;;;;;3.13;1.60;;;8.50;99.90;;;;;;20943113;28;20852;-40
